sensor_id;sensor_type;location;lat;lon;timestamp;P1;durP1;ratioP1;P2;durP2;ratioP2
66478;SDS011;53294;47.912;13.526;2022-10-31T00:01:13;9.82;;;3.58;;
66478;SDS011;53294;47.912;13.526;2022-10-31T00:03:42;7.50;;;3.15;;
66478;SDS011;53294;47.912;13.526;2022-10-31T00:06:09;7.63;;;3.85;;
66478;SDS011;53294;47.912;13.526;2022-10-31T00:08:36;8.45;;;3.53;;
66478;SDS011;53294;47.912;13.526;2022-10-31T00:11:02;9.15;;;3.97;;
66478;SDS011;53294;47.912;13.526;2022-10-31T00:13:29;10.85;;;3.90;;
66478;SDS011;53294;47.912;13.526;2022-10-31T00:15:57;7.65;;;3.67;;
66478;SDS011;53294;47.912;13.526;2022-10-31T00:18:23;10.23;;;3.90;;
66478;SDS011;53294;47.912;13.526;2022-10-31T00:20:57;8.40;;;3.45;;
66478;SDS011;53294;47.912;13.526;2022-10-31T00:23:25;11.18;;;3.80;;
66478;SDS011;53294;47.912;13.526;2022-10-31T00:25:52;11.90;;;3.40;;
66478;SDS011;53294;47.912;13.526;2022-10-31T00:28:18;9.23;;;3.65;;
66478;SDS011;53294;47.912;13.526;2022-10-31T00:30:50;9.48;;;3.75;;
66478;SDS011;53294;47.912;13.526;2022-10-31T00:33:16;11.82;;;4.03;;
66478;SDS011;53294;47.912;13.526;2022-10-31T00:35:48;6.63;;;3.10;;
66478;SDS011;53294;47.912;13.526;2022-10-31T00:38:16;10.40;;;4.20;;
66478;SDS011;53294;47.912;13.526;2022-10-31T00:40:42;8.75;;;3.95;;
66478;SDS011;53294;47.912;13.526;2022-10-31T00:43:09;8.35;;;3.80;;
66478;SDS011;53294;47.912;13.526;2022-10-31T00:45:37;10.18;;;4.07;;
66478;SDS011;53294;47.912;13.526;2022-10-31T00:48:03;11.35;;;3.85;;
66478;SDS011;53294;47.912;13.526;2022-10-31T00:50:30;10.65;;;4.13;;
66478;SDS011;53294;47.912;13.526;2022-10-31T00:52:57;7.32;;;3.85;;
66478;SDS011;53294;47.912;13.526;2022-10-31T00:55:24;13.55;;;4.57;;
66478;SDS011;53294;47.912;13.526;2022-10-31T00:57:50;9.85;;;4.07;;
66478;SDS011;53294;47.912;13.526;2022-10-31T01:00:17;10.98;;;3.78;;
66478;SDS011;53294;47.912;13.526;2022-10-31T01:02:44;12.32;;;4.43;;
66478;SDS011;53294;47.912;13.526;2022-10-31T01:05:11;8.63;;;4.13;;
66478;SDS011;53294;47.912;13.526;2022-10-31T01:07:39;10.35;;;3.70;;
66478;SDS011;53294;47.912;13.526;2022-10-31T01:10:06;11.02;;;4.10;;
66478;SDS011;53294;47.912;13.526;2022-10-31T01:12:37;12.38;;;4.28;;
66478;SDS011;53294;47.912;13.526;2022-10-31T01:15:12;7.78;;;3.60;;
66478;SDS011;53294;47.912;13.526;2022-10-31T01:17:42;7.22;;;4.28;;
66478;SDS011;53294;47.912;13.526;2022-10-31T01:20:09;9.57;;;3.92;;
66478;SDS011;53294;47.912;13.526;2022-10-31T01:22:38;7.57;;;3.42;;
66478;SDS011;53294;47.912;13.526;2022-10-31T01:25:05;10.13;;;4.15;;
66478;SDS011;53294;47.912;13.526;2022-10-31T01:27:32;8.20;;;3.30;;
66478;SDS011;53294;47.912;13.526;2022-10-31T01:29:59;8.75;;;3.33;;
66478;SDS011;53294;47.912;13.526;2022-10-31T01:32:26;9.20;;;3.65;;
66478;SDS011;53294;47.912;13.526;2022-10-31T01:34:55;9.30;;;3.65;;
66478;SDS011;53294;47.912;13.526;2022-10-31T01:37:21;12.57;;;4.00;;
66478;SDS011;53294;47.912;13.526;2022-10-31T01:39:48;12.43;;;4.00;;
66478;SDS011;53294;47.912;13.526;2022-10-31T01:42:15;11.00;;;4.18;;
66478;SDS011;53294;47.912;13.526;2022-10-31T01:44:53;11.20;;;4.28;;
66478;SDS011;53294;47.912;13.526;2022-10-31T01:50:12;8.38;;;3.47;;
66478;SDS011;53294;47.912;13.526;2022-10-31T01:52:45;11.63;;;3.80;;
66478;SDS011;53294;47.912;13.526;2022-10-31T01:57:44;10.25;;;4.30;;
66478;SDS011;53294;47.912;13.526;2022-10-31T02:00:12;10.38;;;3.97;;
66478;SDS011;53294;47.912;13.526;2022-10-31T02:02:40;10.40;;;3.75;;
66478;SDS011;53294;47.912;13.526;2022-10-31T02:05:10;11.85;;;3.80;;
66478;SDS011;53294;47.912;13.526;2022-10-31T02:10:23;10.65;;;3.90;;
66478;SDS011;53294;47.912;13.526;2022-10-31T02:12:51;9.20;;;3.90;;
66478;SDS011;53294;47.912;13.526;2022-10-31T02:15:21;10.18;;;4.20;;
66478;SDS011;53294;47.912;13.526;2022-10-31T02:17:48;11.80;;;4.63;;
66478;SDS011;53294;47.912;13.526;2022-10-31T02:20:16;11.63;;;3.95;;
66478;SDS011;53294;47.912;13.526;2022-10-31T02:33:53;7.00;;;3.53;;
66478;SDS011;53294;47.912;13.526;2022-10-31T02:36:28;10.55;;;4.43;;
66478;SDS011;53294;47.912;13.526;2022-10-31T02:39:55;9.00;;;3.42;;
66478;SDS011;53294;47.912;13.526;2022-10-31T02:42:21;9.10;;;3.80;;
66478;SDS011;53294;47.912;13.526;2022-10-31T02:45:00;9.32;;;3.90;;
66478;SDS011;53294;47.912;13.526;2022-10-31T02:47:40;8.23;;;3.53;;
66478;SDS011;53294;47.912;13.526;2022-10-31T02:50:11;8.05;;;4.32;;
66478;SDS011;53294;47.912;13.526;2022-10-31T02:52:44;10.70;;;4.53;;
66478;SDS011;53294;47.912;13.526;2022-10-31T02:55:11;11.27;;;4.65;;
66478;SDS011;53294;47.912;13.526;2022-10-31T02:58:07;10.07;;;4.13;;
66478;SDS011;53294;47.912;13.526;2022-10-31T03:03:50;12.65;;;4.72;;
66478;SDS011;53294;47.912;13.526;2022-10-31T03:09:21;14.48;;;4.45;;
66478;SDS011;53294;47.912;13.526;2022-10-31T03:12:09;8.30;;;4.28;;
66478;SDS011;53294;47.912;13.526;2022-10-31T03:14:41;10.35;;;4.30;;
66478;SDS011;53294;47.912;13.526;2022-10-31T03:17:45;9.70;;;4.78;;
66478;SDS011;53294;47.912;13.526;2022-10-31T03:20:06;8.05;;;3.83;;
66478;SDS011;53294;47.912;13.526;2022-10-31T03:22:36;10.32;;;4.43;;
66478;SDS011;53294;47.912;13.526;2022-10-31T03:25:08;11.82;;;4.57;;
66478;SDS011;53294;47.912;13.526;2022-10-31T03:27:36;10.32;;;4.30;;
66478;SDS011;53294;47.912;13.526;2022-10-31T03:30:06;11.35;;;4.93;;
66478;SDS011;53294;47.912;13.526;2022-10-31T03:35:09;7.22;;;4.10;;
66478;SDS011;53294;47.912;13.526;2022-10-31T03:37:39;10.52;;;4.45;;
66478;SDS011;53294;47.912;13.526;2022-10-31T03:40:07;9.93;;;4.28;;
66478;SDS011;53294;47.912;13.526;2022-10-31T03:42:37;10.93;;;4.75;;
66478;SDS011;53294;47.912;13.526;2022-10-31T03:45:08;12.18;;;4.30;;
66478;SDS011;53294;47.912;13.526;2022-10-31T03:47:39;8.32;;;4.05;;
66478;SDS011;53294;47.912;13.526;2022-10-31T03:50:09;8.70;;;4.40;;
66478;SDS011;53294;47.912;13.526;2022-10-31T03:55:26;8.10;;;3.20;;
66478;SDS011;53294;47.912;13.526;2022-10-31T04:00:38;10.80;;;4.05;;
66478;SDS011;53294;47.912;13.526;2022-10-31T04:03:12;10.98;;;4.32;;
66478;SDS011;53294;47.912;13.526;2022-10-31T04:05:43;11.55;;;4.20;;
66478;SDS011;53294;47.912;13.526;2022-10-31T04:08:15;10.35;;;4.35;;
66478;SDS011;53294;47.912;13.526;2022-10-31T04:10:45;10.18;;;4.32;;
66478;SDS011;53294;47.912;13.526;2022-10-31T04:13:16;13.63;;;4.63;;
66478;SDS011;53294;47.912;13.526;2022-10-31T04:15:46;10.43;;;4.50;;
66478;SDS011;53294;47.912;13.526;2022-10-31T04:18:15;7.82;;;3.70;;
66478;SDS011;53294;47.912;13.526;2022-10-31T04:20:42;10.02;;;3.92;;
66478;SDS011;53294;47.912;13.526;2022-10-31T04:23:18;9.45;;;4.13;;
66478;SDS011;53294;47.912;13.526;2022-10-31T04:25:48;11.65;;;4.32;;
66478;SDS011;53294;47.912;13.526;2022-10-31T04:28:15;8.05;;;4.10;;
66478;SDS011;53294;47.912;13.526;2022-10-31T04:30:41;10.38;;;3.90;;
66478;SDS011;53294;47.912;13.526;2022-10-31T04:33:08;14.25;;;4.80;;
66478;SDS011;53294;47.912;13.526;2022-10-31T04:35:35;9.48;;;4.00;;
66478;SDS011;53294;47.912;13.526;2022-10-31T04:38:02;10.20;;;4.05;;
66478;SDS011;53294;47.912;13.526;2022-10-31T04:40:28;11.00;;;4.28;;
66478;SDS011;53294;47.912;13.526;2022-10-31T04:42:55;13.00;;;4.75;;
66478;SDS011;53294;47.912;13.526;2022-10-31T04:45:22;11.85;;;4.90;;
66478;SDS011;53294;47.912;13.526;2022-10-31T04:47:49;11.45;;;4.35;;
66478;SDS011;53294;47.912;13.526;2022-10-31T04:50:15;10.27;;;4.15;;
66478;SDS011;53294;47.912;13.526;2022-10-31T04:52:43;7.88;;;3.97;;
66478;SDS011;53294;47.912;13.526;2022-10-31T04:55:11;7.47;;;3.83;;
66478;SDS011;53294;47.912;13.526;2022-10-31T04:57:46;11.23;;;4.35;;
66478;SDS011;53294;47.912;13.526;2022-10-31T05:00:14;9.40;;;4.55;;
66478;SDS011;53294;47.912;13.526;2022-10-31T05:02:53;13.48;;;4.63;;
66478;SDS011;53294;47.912;13.526;2022-10-31T05:05:22;11.50;;;4.03;;
66478;SDS011;53294;47.912;13.526;2022-10-31T05:07:51;10.63;;;4.32;;
66478;SDS011;53294;47.912;13.526;2022-10-31T05:10:19;9.65;;;3.92;;
66478;SDS011;53294;47.912;13.526;2022-10-31T05:12:49;7.07;;;3.67;;
66478;SDS011;53294;47.912;13.526;2022-10-31T05:15:28;13.23;;;4.10;;
66478;SDS011;53294;47.912;13.526;2022-10-31T05:17:55;8.43;;;3.60;;
66478;SDS011;53294;47.912;13.526;2022-10-31T05:20:26;11.02;;;4.20;;
66478;SDS011;53294;47.912;13.526;2022-10-31T05:22:54;9.02;;;4.15;;
66478;SDS011;53294;47.912;13.526;2022-10-31T05:25:23;8.18;;;3.70;;
66478;SDS011;53294;47.912;13.526;2022-10-31T05:27:52;9.55;;;4.20;;
66478;SDS011;53294;47.912;13.526;2022-10-31T05:30:24;8.80;;;4.22;;
66478;SDS011;53294;47.912;13.526;2022-10-31T05:32:53;12.55;;;4.03;;
66478;SDS011;53294;47.912;13.526;2022-10-31T05:35:30;12.30;;;4.22;;
66478;SDS011;53294;47.912;13.526;2022-10-31T05:37:58;10.02;;;4.32;;
66478;SDS011;53294;47.912;13.526;2022-10-31T05:40:26;9.68;;;4.63;;
66478;SDS011;53294;47.912;13.526;2022-10-31T05:42:54;10.45;;;4.35;;
66478;SDS011;53294;47.912;13.526;2022-10-31T05:45:22;9.55;;;3.83;;
66478;SDS011;53294;47.912;13.526;2022-10-31T05:47:49;8.25;;;3.70;;
66478;SDS011;53294;47.912;13.526;2022-10-31T05:50:20;10.00;;;4.30;;
66478;SDS011;53294;47.912;13.526;2022-10-31T05:52:53;10.43;;;4.15;;
66478;SDS011;53294;47.912;13.526;2022-10-31T05:57:47;10.38;;;4.50;;
66478;SDS011;53294;47.912;13.526;2022-10-31T06:00:14;11.68;;;5.18;;
66478;SDS011;53294;47.912;13.526;2022-10-31T06:02:42;8.13;;;3.28;;
66478;SDS011;53294;47.912;13.526;2022-10-31T06:05:08;9.93;;;4.07;;
66478;SDS011;53294;47.912;13.526;2022-10-31T06:07:35;8.05;;;3.53;;
66478;SDS011;53294;47.912;13.526;2022-10-31T06:10:03;9.70;;;3.65;;
66478;SDS011;53294;47.912;13.526;2022-10-31T06:12:31;8.32;;;3.40;;
66478;SDS011;53294;47.912;13.526;2022-10-31T06:15:04;9.32;;;4.28;;
66478;SDS011;53294;47.912;13.526;2022-10-31T06:17:32;8.50;;;3.67;;
66478;SDS011;53294;47.912;13.526;2022-10-31T06:19:59;11.32;;;3.90;;
66478;SDS011;53294;47.912;13.526;2022-10-31T06:22:27;9.93;;;4.00;;
66478;SDS011;53294;47.912;13.526;2022-10-31T06:24:54;6.82;;;3.70;;
66478;SDS011;53294;47.912;13.526;2022-10-31T06:27:20;10.55;;;3.80;;
66478;SDS011;53294;47.912;13.526;2022-10-31T06:29:47;9.13;;;3.83;;
66478;SDS011;53294;47.912;13.526;2022-10-31T06:32:14;8.38;;;4.22;;
66478;SDS011;53294;47.912;13.526;2022-10-31T06:34:41;9.85;;;4.40;;
66478;SDS011;53294;47.912;13.526;2022-10-31T06:37:09;7.88;;;4.22;;
66478;SDS011;53294;47.912;13.526;2022-10-31T06:39:37;10.45;;;3.85;;
66478;SDS011;53294;47.912;13.526;2022-10-31T06:42:04;8.00;;;3.60;;
66478;SDS011;53294;47.912;13.526;2022-10-31T06:44:31;9.15;;;4.72;;
66478;SDS011;53294;47.912;13.526;2022-10-31T06:46:58;9.23;;;3.58;;
66478;SDS011;53294;47.912;13.526;2022-10-31T06:49:25;9.93;;;4.10;;
66478;SDS011;53294;47.912;13.526;2022-10-31T06:51:51;9.75;;;3.63;;
66478;SDS011;53294;47.912;13.526;2022-10-31T06:54:18;10.40;;;3.95;;
66478;SDS011;53294;47.912;13.526;2022-10-31T06:56:45;11.07;;;4.05;;
66478;SDS011;53294;47.912;13.526;2022-10-31T06:59:13;7.30;;;3.58;;
66478;SDS011;53294;47.912;13.526;2022-10-31T07:01:41;10.65;;;3.92;;
66478;SDS011;53294;47.912;13.526;2022-10-31T07:04:10;9.68;;;4.22;;
66478;SDS011;53294;47.912;13.526;2022-10-31T07:06:37;11.15;;;4.95;;
66478;SDS011;53294;47.912;13.526;2022-10-31T07:09:04;12.18;;;6.57;;
66478;SDS011;53294;47.912;13.526;2022-10-31T07:11:31;10.82;;;4.63;;
66478;SDS011;53294;47.912;13.526;2022-10-31T07:13:58;10.95;;;4.05;;
66478;SDS011;53294;47.912;13.526;2022-10-31T07:16:25;10.60;;;4.50;;
66478;SDS011;53294;47.912;13.526;2022-10-31T07:18:52;10.88;;;4.70;;
66478;SDS011;53294;47.912;13.526;2022-10-31T07:21:18;10.25;;;4.50;;
66478;SDS011;53294;47.912;13.526;2022-10-31T07:23:47;10.25;;;4.15;;
66478;SDS011;53294;47.912;13.526;2022-10-31T07:26:14;16.95;;;5.22;;
66478;SDS011;53294;47.912;13.526;2022-10-31T07:28:41;9.35;;;4.60;;
66478;SDS011;53294;47.912;13.526;2022-10-31T07:31:08;8.27;;;4.30;;
66478;SDS011;53294;47.912;13.526;2022-10-31T07:33:35;12.52;;;4.70;;
66478;SDS011;53294;47.912;13.526;2022-10-31T07:36:01;7.43;;;4.13;;
66478;SDS011;53294;47.912;13.526;2022-10-31T07:38:28;8.40;;;4.70;;
66478;SDS011;53294;47.912;13.526;2022-10-31T07:40:54;13.85;;;4.97;;
66478;SDS011;53294;47.912;13.526;2022-10-31T07:43:21;9.02;;;4.72;;
66478;SDS011;53294;47.912;13.526;2022-10-31T07:45:52;10.00;;;4.65;;
66478;SDS011;53294;47.912;13.526;2022-10-31T07:48:20;11.40;;;4.90;;
66478;SDS011;53294;47.912;13.526;2022-10-31T07:50:47;10.52;;;4.10;;
66478;SDS011;53294;47.912;13.526;2022-10-31T07:53:14;10.32;;;4.40;;
66478;SDS011;53294;47.912;13.526;2022-10-31T07:55:41;11.23;;;5.28;;
66478;SDS011;53294;47.912;13.526;2022-10-31T07:58:12;11.38;;;4.60;;
66478;SDS011;53294;47.912;13.526;2022-10-31T08:00:41;11.70;;;4.35;;
66478;SDS011;53294;47.912;13.526;2022-10-31T08:03:10;11.75;;;4.57;;
66478;SDS011;53294;47.912;13.526;2022-10-31T08:05:39;8.27;;;4.45;;
66478;SDS011;53294;47.912;13.526;2022-10-31T08:08:07;13.32;;;4.88;;
66478;SDS011;53294;47.912;13.526;2022-10-31T08:10:35;10.40;;;4.95;;
66478;SDS011;53294;47.912;13.526;2022-10-31T08:13:11;8.85;;;3.80;;
66478;SDS011;53294;47.912;13.526;2022-10-31T08:15:39;9.70;;;4.20;;
66478;SDS011;53294;47.912;13.526;2022-10-31T08:18:14;12.65;;;4.82;;
66478;SDS011;53294;47.912;13.526;2022-10-31T08:23:08;11.65;;;4.18;;
66478;SDS011;53294;47.912;13.526;2022-10-31T08:25:36;11.23;;;4.25;;
66478;SDS011;53294;47.912;13.526;2022-10-31T08:28:04;11.50;;;4.70;;
66478;SDS011;53294;47.912;13.526;2022-10-31T08:30:33;13.15;;;4.50;;
66478;SDS011;53294;47.912;13.526;2022-10-31T08:35:38;9.60;;;4.47;;
66478;SDS011;53294;47.912;13.526;2022-10-31T08:38:05;9.10;;;3.63;;
66478;SDS011;53294;47.912;13.526;2022-10-31T08:40:34;10.85;;;4.45;;
66478;SDS011;53294;47.912;13.526;2022-10-31T08:43:10;11.90;;;4.63;;
66478;SDS011;53294;47.912;13.526;2022-10-31T08:45:39;12.52;;;4.22;;
66478;SDS011;53294;47.912;13.526;2022-10-31T08:48:07;9.40;;;4.45;;
66478;SDS011;53294;47.912;13.526;2022-10-31T08:50:37;12.80;;;4.55;;
66478;SDS011;53294;47.912;13.526;2022-10-31T08:53:11;11.48;;;4.22;;
66478;SDS011;53294;47.912;13.526;2022-10-31T08:55:40;14.48;;;5.05;;
66478;SDS011;53294;47.912;13.526;2022-10-31T08:58:11;12.25;;;5.20;;
66478;SDS011;53294;47.912;13.526;2022-10-31T09:00:40;15.50;;;5.70;;
66478;SDS011;53294;47.912;13.526;2022-10-31T09:03:10;13.90;;;5.57;;
66478;SDS011;53294;47.912;13.526;2022-10-31T09:05:39;14.50;;;6.30;;
66478;SDS011;53294;47.912;13.526;2022-10-31T09:08:07;13.55;;;6.07;;
66478;SDS011;53294;47.912;13.526;2022-10-31T09:10:40;13.68;;;6.20;;
66478;SDS011;53294;47.912;13.526;2022-10-31T09:13:08;12.48;;;6.07;;
66478;SDS011;53294;47.912;13.526;2022-10-31T09:15:38;14.23;;;5.47;;
66478;SDS011;53294;47.912;13.526;2022-10-31T09:18:06;15.15;;;5.88;;
66478;SDS011;53294;47.912;13.526;2022-10-31T09:20:35;16.17;;;7.00;;
66478;SDS011;53294;47.912;13.526;2022-10-31T09:23:04;19.35;;;7.55;;
66478;SDS011;53294;47.912;13.526;2022-10-31T09:25:36;19.67;;;8.55;;
66478;SDS011;53294;47.912;13.526;2022-10-31T09:28:04;18.27;;;8.23;;
66478;SDS011;53294;47.912;13.526;2022-10-31T09:30:32;19.75;;;9.73;;
66478;SDS011;53294;47.912;13.526;2022-10-31T09:33:03;22.98;;;10.63;;
66478;SDS011;53294;47.912;13.526;2022-10-31T09:35:32;22.15;;;9.80;;
66478;SDS011;53294;47.912;13.526;2022-10-31T09:38:00;20.58;;;10.60;;
66478;SDS011;53294;47.912;13.526;2022-10-31T09:40:35;19.33;;;9.13;;
66478;SDS011;53294;47.912;13.526;2022-10-31T09:43:14;17.80;;;8.32;;
66478;SDS011;53294;47.912;13.526;2022-10-31T09:45:53;18.42;;;9.20;;
66478;SDS011;53294;47.912;13.526;2022-10-31T09:51:16;17.17;;;8.60;;
66478;SDS011;53294;47.912;13.526;2022-10-31T09:56:20;14.88;;;6.90;;
66478;SDS011;53294;47.912;13.526;2022-10-31T09:58:49;13.73;;;6.38;;
66478;SDS011;53294;47.912;13.526;2022-10-31T10:07:07;13.07;;;5.78;;
66478;SDS011;53294;47.912;13.526;2022-10-31T10:09:41;11.25;;;5.07;;
66478;SDS011;53294;47.912;13.526;2022-10-31T10:12:16;10.98;;;4.88;;
66478;SDS011;53294;47.912;13.526;2022-10-31T10:23:22;9.27;;;4.38;;
66478;SDS011;53294;47.912;13.526;2022-10-31T10:25:52;13.75;;;4.65;;
66478;SDS011;53294;47.912;13.526;2022-10-31T10:28:56;13.95;;;4.95;;
66478;SDS011;53294;47.912;13.526;2022-10-31T10:31:30;12.70;;;5.80;;
66478;SDS011;53294;47.912;13.526;2022-10-31T10:34:12;13.00;;;5.85;;
66478;SDS011;53294;47.912;13.526;2022-10-31T10:36:57;12.45;;;5.47;;
66478;SDS011;53294;47.912;13.526;2022-10-31T10:39:33;18.17;;;5.80;;
66478;SDS011;53294;47.912;13.526;2022-10-31T10:42:10;12.20;;;5.60;;
66478;SDS011;53294;47.912;13.526;2022-10-31T10:44:57;12.80;;;5.37;;
66478;SDS011;53294;47.912;13.526;2022-10-31T10:47:43;13.10;;;5.93;;
66478;SDS011;53294;47.912;13.526;2022-10-31T10:50:20;11.10;;;5.63;;
66478;SDS011;53294;47.912;13.526;2022-10-31T10:53:00;10.85;;;5.15;;
66478;SDS011;53294;47.912;13.526;2022-10-31T10:58:24;14.80;;;5.95;;
66478;SDS011;53294;47.912;13.526;2022-10-31T11:00:51;17.73;;;6.07;;
66478;SDS011;53294;47.912;13.526;2022-10-31T11:03:19;9.98;;;5.35;;
66478;SDS011;53294;47.912;13.526;2022-10-31T11:05:53;11.45;;;5.47;;
66478;SDS011;53294;47.912;13.526;2022-10-31T11:08:30;11.70;;;5.13;;
66478;SDS011;53294;47.912;13.526;2022-10-31T11:11:02;13.35;;;6.05;;
66478;SDS011;53294;47.912;13.526;2022-10-31T11:13:41;13.00;;;4.97;;
66478;SDS011;53294;47.912;13.526;2022-10-31T11:16:10;9.55;;;5.03;;
66478;SDS011;53294;47.912;13.526;2022-10-31T11:18:41;10.07;;;4.70;;
66478;SDS011;53294;47.912;13.526;2022-10-31T11:26:35;10.55;;;4.47;;
66478;SDS011;53294;47.912;13.526;2022-10-31T11:29:04;13.57;;;5.50;;
66478;SDS011;53294;47.912;13.526;2022-10-31T11:31:34;11.73;;;5.30;;
66478;SDS011;53294;47.912;13.526;2022-10-31T11:34:13;11.00;;;4.75;;
66478;SDS011;53294;47.912;13.526;2022-10-31T11:36:44;11.70;;;5.45;;
66478;SDS011;53294;47.912;13.526;2022-10-31T11:39:16;11.55;;;4.50;;
66478;SDS011;53294;47.912;13.526;2022-10-31T11:41:46;13.15;;;5.10;;
66478;SDS011;53294;47.912;13.526;2022-10-31T11:47:00;9.48;;;4.20;;
66478;SDS011;53294;47.912;13.526;2022-10-31T11:49:34;8.20;;;4.15;;
66478;SDS011;53294;47.912;13.526;2022-10-31T11:52:25;11.88;;;4.30;;
66478;SDS011;53294;47.912;13.526;2022-10-31T11:54:57;11.10;;;4.63;;
66478;SDS011;53294;47.912;13.526;2022-10-31T11:57:33;10.48;;;4.43;;
66478;SDS011;53294;47.912;13.526;2022-10-31T12:02:48;11.02;;;4.53;;
66478;SDS011;53294;47.912;13.526;2022-10-31T12:07:49;12.90;;;4.70;;
66478;SDS011;53294;47.912;13.526;2022-10-31T12:10:16;13.10;;;4.25;;
66478;SDS011;53294;47.912;13.526;2022-10-31T12:13:08;13.88;;;4.93;;
66478;SDS011;53294;47.912;13.526;2022-10-31T12:15:53;11.35;;;4.38;;
66478;SDS011;53294;47.912;13.526;2022-10-31T12:18:47;10.95;;;4.50;;
66478;SDS011;53294;47.912;13.526;2022-10-31T12:41:26;11.50;;;4.50;;
66478;SDS011;53294;47.912;13.526;2022-10-31T12:44:06;14.80;;;5.32;;
66478;SDS011;53294;47.912;13.526;2022-10-31T12:52:46;12.82;;;4.60;;
66478;SDS011;53294;47.912;13.526;2022-10-31T12:55:27;9.68;;;4.53;;
66478;SDS011;53294;47.912;13.526;2022-10-31T12:58:07;8.82;;;4.57;;
66478;SDS011;53294;47.912;13.526;2022-10-31T13:01:02;9.98;;;4.28;;
66478;SDS011;53294;47.912;13.526;2022-10-31T13:03:42;8.85;;;4.50;;
66478;SDS011;53294;47.912;13.526;2022-10-31T13:06:17;11.57;;;4.40;;
66478;SDS011;53294;47.912;13.526;2022-10-31T13:08:49;11.95;;;4.90;;
66478;SDS011;53294;47.912;13.526;2022-10-31T13:11:35;11.70;;;4.57;;
66478;SDS011;53294;47.912;13.526;2022-10-31T13:14:14;10.07;;;4.53;;
66478;SDS011;53294;47.912;13.526;2022-10-31T13:16:46;11.20;;;4.75;;
66478;SDS011;53294;47.912;13.526;2022-10-31T13:19:19;11.93;;;4.88;;
66478;SDS011;53294;47.912;13.526;2022-10-31T13:24:23;14.30;;;5.25;;
66478;SDS011;53294;47.912;13.526;2022-10-31T13:30:10;11.20;;;4.70;;
66478;SDS011;53294;47.912;13.526;2022-10-31T13:32:41;8.98;;;4.55;;
66478;SDS011;53294;47.912;13.526;2022-10-31T13:35:21;13.18;;;4.72;;
66478;SDS011;53294;47.912;13.526;2022-10-31T13:37:56;15.32;;;5.30;;
66478;SDS011;53294;47.912;13.526;2022-10-31T13:43:06;12.43;;;5.35;;
66478;SDS011;53294;47.912;13.526;2022-10-31T13:45:33;11.27;;;4.60;;
66478;SDS011;53294;47.912;13.526;2022-10-31T13:50:32;13.38;;;5.25;;
66478;SDS011;53294;47.912;13.526;2022-10-31T13:55:45;11.90;;;6.07;;
66478;SDS011;53294;47.912;13.526;2022-10-31T14:00:57;14.63;;;6.45;;
66478;SDS011;53294;47.912;13.526;2022-10-31T14:03:46;15.13;;;5.90;;
66478;SDS011;53294;47.912;13.526;2022-10-31T14:10:00;11.50;;;5.82;;
66478;SDS011;53294;47.912;13.526;2022-10-31T14:12:28;13.43;;;6.25;;
66478;SDS011;53294;47.912;13.526;2022-10-31T14:15:02;13.15;;;6.97;;
66478;SDS011;53294;47.912;13.526;2022-10-31T14:18:42;13.32;;;7.10;;
66478;SDS011;53294;47.912;13.526;2022-10-31T14:20:48;15.60;;;6.10;;
66478;SDS011;53294;47.912;13.526;2022-10-31T14:26:19;14.38;;;6.53;;
66478;SDS011;53294;47.912;13.526;2022-10-31T14:28:55;15.82;;;7.10;;
66478;SDS011;53294;47.912;13.526;2022-10-31T14:34:50;13.88;;;6.18;;
66478;SDS011;53294;47.912;13.526;2022-10-31T14:37:15;11.20;;;6.00;;
66478;SDS011;53294;47.912;13.526;2022-10-31T14:42:18;12.00;;;5.93;;
66478;SDS011;53294;47.912;13.526;2022-10-31T14:45:11;11.30;;;6.00;;
66478;SDS011;53294;47.912;13.526;2022-10-31T14:48:24;9.25;;;5.35;;
66478;SDS011;53294;47.912;13.526;2022-10-31T14:50:49;11.27;;;5.65;;
66478;SDS011;53294;47.912;13.526;2022-10-31T14:53:26;10.88;;;5.43;;
66478;SDS011;53294;47.912;13.526;2022-10-31T14:55:54;11.63;;;5.28;;
66478;SDS011;53294;47.912;13.526;2022-10-31T14:58:23;11.13;;;5.68;;
66478;SDS011;53294;47.912;13.526;2022-10-31T15:01:04;11.37;;;5.83;;
66478;SDS011;53294;47.912;13.526;2022-10-31T15:03:35;13.80;;;5.15;;
66478;SDS011;53294;47.912;13.526;2022-10-31T15:06:18;11.52;;;5.32;;
66478;SDS011;53294;47.912;13.526;2022-10-31T15:08:51;11.30;;;5.75;;
66478;SDS011;53294;47.912;13.526;2022-10-31T15:11:23;9.27;;;5.15;;
66478;SDS011;53294;47.912;13.526;2022-10-31T15:13:55;11.20;;;5.32;;
66478;SDS011;53294;47.912;13.526;2022-10-31T15:16:36;15.10;;;5.33;;
66478;SDS011;53294;47.912;13.526;2022-10-31T15:19:13;11.50;;;5.45;;
66478;SDS011;53294;47.912;13.526;2022-10-31T15:21:46;11.90;;;5.32;;
66478;SDS011;53294;47.912;13.526;2022-10-31T15:24:14;11.98;;;5.50;;
66478;SDS011;53294;47.912;13.526;2022-10-31T15:26:48;10.43;;;5.25;;
66478;SDS011;53294;47.912;13.526;2022-10-31T15:29:18;13.70;;;6.53;;
66478;SDS011;53294;47.912;13.526;2022-10-31T15:31:53;14.68;;;6.13;;
66478;SDS011;53294;47.912;13.526;2022-10-31T15:36:59;11.82;;;5.40;;
66478;SDS011;53294;47.912;13.526;2022-10-31T15:39:26;13.23;;;6.05;;
66478;SDS011;53294;47.912;13.526;2022-10-31T15:41:54;11.38;;;5.40;;
66478;SDS011;53294;47.912;13.526;2022-10-31T15:44:29;10.30;;;5.68;;
66478;SDS011;53294;47.912;13.526;2022-10-31T15:46:59;10.95;;;5.93;;
66478;SDS011;53294;47.912;13.526;2022-10-31T15:53:01;11.75;;;6.15;;
66478;SDS011;53294;47.912;13.526;2022-10-31T15:57:42;13.75;;;5.50;;
66478;SDS011;53294;47.912;13.526;2022-10-31T16:00:29;12.57;;;5.78;;
66478;SDS011;53294;47.912;13.526;2022-10-31T16:10:52;10.40;;;5.45;;
66478;SDS011;53294;47.912;13.526;2022-10-31T16:13:20;12.75;;;5.97;;
66478;SDS011;53294;47.912;13.526;2022-10-31T16:15:56;11.15;;;6.75;;
66478;SDS011;53294;47.912;13.526;2022-10-31T16:18:46;13.63;;;7.00;;
66478;SDS011;53294;47.912;13.526;2022-10-31T16:21:15;11.70;;;5.80;;
66478;SDS011;53294;47.912;13.526;2022-10-31T16:24:01;12.10;;;6.68;;
66478;SDS011;53294;47.912;13.526;2022-10-31T16:26:31;12.10;;;6.63;;
66478;SDS011;53294;47.912;13.526;2022-10-31T16:28:59;14.35;;;6.10;;
66478;SDS011;53294;47.912;13.526;2022-10-31T16:31:38;12.35;;;6.18;;
66478;SDS011;53294;47.912;13.526;2022-10-31T16:34:15;11.45;;;6.93;;
66478;SDS011;53294;47.912;13.526;2022-10-31T16:36:51;14.73;;;6.70;;
66478;SDS011;53294;47.912;13.526;2022-10-31T16:39:18;13.23;;;6.80;;
66478;SDS011;53294;47.912;13.526;2022-10-31T16:41:46;10.73;;;6.20;;
66478;SDS011;53294;47.912;13.526;2022-10-31T16:49:53;15.25;;;7.32;;
66478;SDS011;53294;47.912;13.526;2022-10-31T16:52:20;10.27;;;6.53;;
66478;SDS011;53294;47.912;13.526;2022-10-31T16:54:47;14.07;;;7.07;;
66478;SDS011;53294;47.912;13.526;2022-10-31T16:57:14;16.42;;;8.05;;
66478;SDS011;53294;47.912;13.526;2022-10-31T16:59:43;12.77;;;7.80;;
66478;SDS011;53294;47.912;13.526;2022-10-31T17:02:14;15.07;;;7.10;;
66478;SDS011;53294;47.912;13.526;2022-10-31T17:04:42;15.55;;;7.97;;
66478;SDS011;53294;47.912;13.526;2022-10-31T17:07:10;14.10;;;7.93;;
66478;SDS011;53294;47.912;13.526;2022-10-31T17:09:36;14.93;;;8.25;;
66478;SDS011;53294;47.912;13.526;2022-10-31T17:12:03;16.42;;;7.35;;
66478;SDS011;53294;47.912;13.526;2022-10-31T17:14:31;14.50;;;7.63;;
66478;SDS011;53294;47.912;13.526;2022-10-31T17:16:59;18.33;;;9.30;;
66478;SDS011;53294;47.912;13.526;2022-10-31T17:19:26;18.27;;;8.75;;
66478;SDS011;53294;47.912;13.526;2022-10-31T17:21:52;16.58;;;9.73;;
66478;SDS011;53294;47.912;13.526;2022-10-31T17:24:19;13.45;;;9.27;;